sensor_id;sensor_type;location;lat;lon;timestamp;P1;durP1;ratioP1;P2;durP2;ratioP2
20144;SDS011;10233;50.814;6.590;2022-10-17T00:00:28;5.27;;;3.83;;
20144;SDS011;10233;50.814;6.590;2022-10-17T00:01:29;9.05;;;3.85;;
20144;SDS011;10233;50.814;6.590;2022-10-17T00:02:29;3.90;;;3.00;;
20144;SDS011;10233;50.814;6.590;2022-10-17T00:03:30;6.20;;;3.40;;
20144;SDS011;10233;50.814;6.590;2022-10-17T00:04:31;5.75;;;3.60;;
20144;SDS011;10233;50.814;6.590;2022-10-17T00:05:31;6.70;;;3.50;;
20144;SDS011;10233;50.814;6.590;2022-10-17T00:06:32;5.30;;;3.33;;
20144;SDS011;10233;50.814;6.590;2022-10-17T00:07:33;7.07;;;3.50;;
20144;SDS011;10233;50.814;6.590;2022-10-17T00:08:33;7.03;;;3.67;;
20144;SDS011;10233;50.814;6.590;2022-10-17T00:09:38;6.68;;;3.63;;
20144;SDS011;10233;50.814;6.590;2022-10-17T00:10:41;7.50;;;3.28;;
20144;SDS011;10233;50.814;6.590;2022-10-17T00:11:42;6.37;;;3.60;;
20144;SDS011;10233;50.814;6.590;2022-10-17T00:12:42;6.82;;;3.80;;
20144;SDS011;10233;50.814;6.590;2022-10-17T00:13:43;6.18;;;3.60;;
20144;SDS011;10233;50.814;6.590;2022-10-17T00:14:47;4.90;;;3.47;;
20144;SDS011;10233;50.814;6.590;2022-10-17T00:15:47;4.70;;;3.13;;
20144;SDS011;10233;50.814;6.590;2022-10-17T00:16:48;6.43;;;3.10;;
20144;SDS011;10233;50.814;6.590;2022-10-17T00:17:48;5.87;;;3.40;;
20144;SDS011;10233;50.814;6.590;2022-10-17T00:18:49;6.30;;;3.72;;
20144;SDS011;10233;50.814;6.590;2022-10-17T00:19:49;7.03;;;3.27;;
20144;SDS011;10233;50.814;6.590;2022-10-17T00:20:50;7.87;;;3.67;;
20144;SDS011;10233;50.814;6.590;2022-10-17T00:21:51;5.63;;;3.42;;
20144;SDS011;10233;50.814;6.590;2022-10-17T00:22:51;9.10;;;3.60;;
20144;SDS011;10233;50.814;6.590;2022-10-17T00:23:52;4.03;;;3.03;;
20144;SDS011;10233;50.814;6.590;2022-10-17T00:24:53;4.72;;;3.20;;
20144;SDS011;10233;50.814;6.590;2022-10-17T00:25:57;4.80;;;3.23;;
20144;SDS011;10233;50.814;6.590;2022-10-17T00:26:58;5.50;;;3.50;;
20144;SDS011;10233;50.814;6.590;2022-10-17T00:27:59;4.93;;;3.20;;
20144;SDS011;10233;50.814;6.590;2022-10-17T00:28:59;7.97;;;3.70;;
20144;SDS011;10233;50.814;6.590;2022-10-17T00:30:00;5.10;;;3.35;;
20144;SDS011;10233;50.814;6.590;2022-10-17T00:31:02;5.73;;;3.40;;
20144;SDS011;10233;50.814;6.590;2022-10-17T00:32:04;4.35;;;3.05;;
20144;SDS011;10233;50.814;6.590;2022-10-17T00:33:04;5.30;;;3.67;;
20144;SDS011;10233;50.814;6.590;2022-10-17T00:34:05;4.50;;;3.23;;
20144;SDS011;10233;50.814;6.590;2022-10-17T00:35:06;5.57;;;3.45;;
20144;SDS011;10233;50.814;6.590;2022-10-17T00:36:14;5.73;;;3.27;;
20144;SDS011;10233;50.814;6.590;2022-10-17T00:37:15;6.65;;;3.20;;
20144;SDS011;10233;50.814;6.590;2022-10-17T00:38:16;4.97;;;3.03;;
20144;SDS011;10233;50.814;6.590;2022-10-17T00:39:16;4.67;;;3.03;;
20144;SDS011;10233;50.814;6.590;2022-10-17T00:40:17;6.13;;;3.17;;
20144;SDS011;10233;50.814;6.590;2022-10-17T00:41:21;4.10;;;3.03;;
20144;SDS011;10233;50.814;6.590;2022-10-17T00:42:24;5.32;;;3.17;;
20144;SDS011;10233;50.814;6.590;2022-10-17T00:43:25;4.35;;;3.00;;
20144;SDS011;10233;50.814;6.590;2022-10-17T00:45:30;6.88;;;3.53;;
20144;SDS011;10233;50.814;6.590;2022-10-17T00:46:32;6.60;;;3.10;;
20144;SDS011;10233;50.814;6.590;2022-10-17T00:47:34;5.97;;;3.38;;
20144;SDS011;10233;50.814;6.590;2022-10-17T00:48:36;6.88;;;3.10;;
20144;SDS011;10233;50.814;6.590;2022-10-17T00:49:36;4.97;;;3.40;;
20144;SDS011;10233;50.814;6.590;2022-10-17T00:50:39;4.72;;;3.20;;
20144;SDS011;10233;50.814;6.590;2022-10-17T00:51:42;6.30;;;3.33;;
20144;SDS011;10233;50.814;6.590;2022-10-17T00:52:46;6.77;;;3.03;;
20144;SDS011;10233;50.814;6.590;2022-10-17T00:53:48;4.50;;;3.13;;
20144;SDS011;10233;50.814;6.590;2022-10-17T00:54:53;5.00;;;3.13;;
20144;SDS011;10233;50.814;6.590;2022-10-17T00:56:03;5.45;;;3.17;;
20144;SDS011;10233;50.814;6.590;2022-10-17T00:57:03;5.97;;;3.50;;
20144;SDS011;10233;50.814;6.590;2022-10-17T00:58:05;6.75;;;3.30;;
20144;SDS011;10233;50.814;6.590;2022-10-17T00:59:06;5.60;;;3.30;;
20144;SDS011;10233;50.814;6.590;2022-10-17T01:00:11;6.20;;;3.40;;
20144;SDS011;10233;50.814;6.590;2022-10-17T01:01:14;5.40;;;3.20;;
20144;SDS011;10233;50.814;6.590;2022-10-17T01:02:17;7.10;;;3.20;;
20144;SDS011;10233;50.814;6.590;2022-10-17T01:03:20;5.57;;;3.30;;
20144;SDS011;10233;50.814;6.590;2022-10-17T01:04:21;7.97;;;3.37;;
20144;SDS011;10233;50.814;6.590;2022-10-17T01:05:22;5.47;;;3.13;;
20144;SDS011;10233;50.814;6.590;2022-10-17T01:06:22;4.33;;;3.17;;
20144;SDS011;10233;50.814;6.590;2022-10-17T01:07:22;4.72;;;3.45;;
20144;SDS011;10233;50.814;6.590;2022-10-17T01:08:23;6.13;;;3.13;;
20144;SDS011;10233;50.814;6.590;2022-10-17T01:09:24;6.72;;;3.38;;
20144;SDS011;10233;50.814;6.590;2022-10-17T01:10:29;4.60;;;3.30;;
20144;SDS011;10233;50.814;6.590;2022-10-17T01:14:03;8.82;;;3.47;;
20144;SDS011;10233;50.814;6.590;2022-10-17T01:15:23;5.20;;;3.05;;
20144;SDS011;10233;50.814;6.590;2022-10-17T01:16:42;5.15;;;3.35;;
20144;SDS011;10233;50.814;6.590;2022-10-17T01:19:31;5.03;;;3.47;;
20144;SDS011;10233;50.814;6.590;2022-10-17T01:22:31;5.57;;;3.50;;
20144;SDS011;10233;50.814;6.590;2022-10-17T01:28:00;7.43;;;3.97;;
20144;SDS011;10233;50.814;6.590;2022-10-17T01:32:12;7.93;;;4.10;;
20144;SDS011;10233;50.814;6.590;2022-10-17T01:33:22;5.72;;;3.30;;
20144;SDS011;10233;50.814;6.590;2022-10-17T01:37:01;4.75;;;3.40;;
20144;SDS011;10233;50.814;6.590;2022-10-17T01:38:11;6.95;;;3.53;;
20144;SDS011;10233;50.814;6.590;2022-10-17T01:40:39;6.93;;;3.38;;
20144;SDS011;10233;50.814;6.590;2022-10-17T01:43:18;4.70;;;3.20;;
20144;SDS011;10233;50.814;6.590;2022-10-17T01:44:26;6.05;;;3.38;;
20144;SDS011;10233;50.814;6.590;2022-10-17T01:45:37;6.47;;;3.42;;
20144;SDS011;10233;50.814;6.590;2022-10-17T01:46:42;4.55;;;3.03;;
20144;SDS011;10233;50.814;6.590;2022-10-17T01:47:49;5.80;;;3.00;;
20144;SDS011;10233;50.814;6.590;2022-10-17T01:48:51;4.80;;;3.22;;
20144;SDS011;10233;50.814;6.590;2022-10-17T01:49:56;5.45;;;3.00;;
20144;SDS011;10233;50.814;6.590;2022-10-17T01:51:09;4.93;;;3.20;;
20144;SDS011;10233;50.814;6.590;2022-10-17T01:52:18;6.72;;;3.10;;
20144;SDS011;10233;50.814;6.590;2022-10-17T01:53:26;5.87;;;3.20;;
20144;SDS011;10233;50.814;6.590;2022-10-17T01:55:43;6.45;;;3.20;;
20144;SDS011;10233;50.814;6.590;2022-10-17T01:56:47;5.43;;;3.10;;
20144;SDS011;10233;50.814;6.590;2022-10-17T01:57:55;5.32;;;3.13;;
20144;SDS011;10233;50.814;6.590;2022-10-17T01:59:03;5.32;;;3.05;;
20144;SDS011;10233;50.814;6.590;2022-10-17T02:00:12;6.03;;;3.00;;
20144;SDS011;10233;50.814;6.590;2022-10-17T02:01:16;4.20;;;3.03;;
20144;SDS011;10233;50.814;6.590;2022-10-17T02:02:19;6.45;;;3.22;;
20144;SDS011;10233;50.814;6.590;2022-10-17T02:03:21;5.43;;;3.10;;
20144;SDS011;10233;50.814;6.590;2022-10-17T02:04:24;7.03;;;3.22;;
20144;SDS011;10233;50.814;6.590;2022-10-17T02:05:47;5.22;;;3.17;;
20144;SDS011;10233;50.814;6.590;2022-10-17T02:06:47;5.05;;;3.05;;
20144;SDS011;10233;50.814;6.590;2022-10-17T02:07:47;5.37;;;3.23;;
20144;SDS011;10233;50.814;6.590;2022-10-17T02:08:48;6.55;;;3.22;;
20144;SDS011;10233;50.814;6.590;2022-10-17T02:09:49;4.95;;;3.30;;
20144;SDS011;10233;50.814;6.590;2022-10-17T02:11:32;4.35;;;3.00;;
20144;SDS011;10233;50.814;6.590;2022-10-17T02:12:26;3.88;;;3.00;;
20144;SDS011;10233;50.814;6.590;2022-10-17T02:14:53;5.00;;;3.25;;
20144;SDS011;10233;50.814;6.590;2022-10-17T02:16:21;6.05;;;3.13;;
20144;SDS011;10233;50.814;6.590;2022-10-17T02:18:12;5.03;;;3.47;;
20144;SDS011;10233;50.814;6.590;2022-10-17T02:20:39;5.50;;;3.40;;
20144;SDS011;10233;50.814;6.590;2022-10-17T02:25:50;4.70;;;2.92;;
20144;SDS011;10233;50.814;6.590;2022-10-17T02:27:04;4.85;;;3.20;;
20144;SDS011;10233;50.814;6.590;2022-10-17T02:29:28;3.67;;;2.92;;
20144;SDS011;10233;50.814;6.590;2022-10-17T02:30:36;4.22;;;3.00;;
20144;SDS011;10233;50.814;6.590;2022-10-17T02:31:44;5.50;;;3.05;;
20144;SDS011;10233;50.814;6.590;2022-10-17T02:33:13;5.30;;;3.13;;
20144;SDS011;10233;50.814;6.590;2022-10-17T02:34:31;6.45;;;2.90;;
20144;SDS011;10233;50.814;6.590;2022-10-17T02:35:38;9.98;;;3.78;;
20144;SDS011;10233;50.814;6.590;2022-10-17T02:36:48;6.57;;;3.20;;
20144;SDS011;10233;50.814;6.590;2022-10-17T02:37:52;5.13;;;3.20;;
20144;SDS011;10233;50.814;6.590;2022-10-17T02:38:55;6.40;;;3.33;;
20144;SDS011;10233;50.814;6.590;2022-10-17T02:39:58;7.95;;;3.35;;
20144;SDS011;10233;50.814;6.590;2022-10-17T02:41:00;7.07;;;3.30;;
20144;SDS011;10233;50.814;6.590;2022-10-17T02:42:04;11.13;;;3.40;;
20144;SDS011;10233;50.814;6.590;2022-10-17T02:43:06;6.55;;;3.35;;
20144;SDS011;10233;50.814;6.590;2022-10-17T02:44:08;5.90;;;3.40;;
20144;SDS011;10233;50.814;6.590;2022-10-17T02:45:10;6.18;;;3.13;;
20144;SDS011;10233;50.814;6.590;2022-10-17T02:46:12;3.55;;;2.90;;
20144;SDS011;10233;50.814;6.590;2022-10-17T02:47:22;7.30;;;3.10;;
20144;SDS011;10233;50.814;6.590;2022-10-17T02:48:36;7.30;;;3.55;;
20144;SDS011;10233;50.814;6.590;2022-10-17T02:49:42;4.75;;;3.13;;
20144;SDS011;10233;50.814;6.590;2022-10-17T02:53:03;8.13;;;3.30;;
20144;SDS011;10233;50.814;6.590;2022-10-17T02:56:32;6.10;;;3.00;;
20144;SDS011;10233;50.814;6.590;2022-10-17T02:57:55;4.22;;;3.10;;
20144;SDS011;10233;50.814;6.590;2022-10-17T02:58:59;5.75;;;3.35;;
20144;SDS011;10233;50.814;6.590;2022-10-17T03:00:03;6.95;;;3.60;;
20144;SDS011;10233;50.814;6.590;2022-10-17T03:01:06;6.47;;;3.22;;
20144;SDS011;10233;50.814;6.590;2022-10-17T03:02:07;6.80;;;3.08;;
20144;SDS011;10233;50.814;6.590;2022-10-17T03:03:17;3.97;;;3.07;;
20144;SDS011;10233;50.814;6.590;2022-10-17T03:04:21;6.53;;;3.10;;
20144;SDS011;10233;50.814;6.590;2022-10-17T03:05:23;4.60;;;3.08;;
20144;SDS011;10233;50.814;6.590;2022-10-17T03:06:28;4.32;;;3.15;;
20144;SDS011;10233;50.814;6.590;2022-10-17T03:07:29;8.73;;;3.27;;
20144;SDS011;10233;50.814;6.590;2022-10-17T03:08:29;8.68;;;3.63;;
20144;SDS011;10233;50.814;6.590;2022-10-17T03:09:30;9.00;;;3.37;;
20144;SDS011;10233;50.814;6.590;2022-10-17T03:10:30;6.57;;;3.10;;
20144;SDS011;10233;50.814;6.590;2022-10-17T03:11:31;6.60;;;3.30;;
20144;SDS011;10233;50.814;6.590;2022-10-17T03:12:32;5.82;;;3.08;;
20144;SDS011;10233;50.814;6.590;2022-10-17T03:13:32;4.77;;;2.83;;
20144;SDS011;10233;50.814;6.590;2022-10-17T03:14:33;4.18;;;2.90;;
20144;SDS011;10233;50.814;6.590;2022-10-17T03:15:35;5.72;;;2.78;;
20144;SDS011;10233;50.814;6.590;2022-10-17T03:16:35;4.38;;;2.80;;
20144;SDS011;10233;50.814;6.590;2022-10-17T03:17:37;4.68;;;3.20;;
20144;SDS011;10233;50.814;6.590;2022-10-17T03:18:42;5.38;;;2.85;;
20144;SDS011;10233;50.814;6.590;2022-10-17T03:19:42;4.80;;;2.90;;
20144;SDS011;10233;50.814;6.590;2022-10-17T03:20:43;6.70;;;3.10;;
20144;SDS011;10233;50.814;6.590;2022-10-17T03:21:43;5.27;;;3.27;;
20144;SDS011;10233;50.814;6.590;2022-10-17T03:22:45;7.43;;;3.17;;
20144;SDS011;10233;50.814;6.590;2022-10-17T03:23:45;5.55;;;3.22;;
20144;SDS011;10233;50.814;6.590;2022-10-17T03:24:47;3.53;;;2.70;;
20144;SDS011;10233;50.814;6.590;2022-10-17T03:25:48;4.93;;;3.03;;
20144;SDS011;10233;50.814;6.590;2022-10-17T03:26:49;6.75;;;3.22;;
20144;SDS011;10233;50.814;6.590;2022-10-17T03:27:50;6.93;;;2.97;;
20144;SDS011;10233;50.814;6.590;2022-10-17T03:28:51;4.22;;;2.78;;
20144;SDS011;10233;50.814;6.590;2022-10-17T03:29:52;3.50;;;2.85;;
20144;SDS011;10233;50.814;6.590;2022-10-17T03:30:53;5.18;;;3.20;;
20144;SDS011;10233;50.814;6.590;2022-10-17T03:31:55;4.93;;;2.70;;
20144;SDS011;10233;50.814;6.590;2022-10-17T03:32:58;5.97;;;2.80;;
20144;SDS011;10233;50.814;6.590;2022-10-17T03:34:00;5.28;;;2.78;;
20144;SDS011;10233;50.814;6.590;2022-10-17T03:35:02;6.72;;;3.08;;
20144;SDS011;10233;50.814;6.590;2022-10-17T03:36:10;6.00;;;2.88;;
20144;SDS011;10233;50.814;6.590;2022-10-17T03:37:14;5.00;;;2.60;;
20144;SDS011;10233;50.814;6.590;2022-10-17T03:38:15;6.97;;;3.45;;
20144;SDS011;10233;50.814;6.590;2022-10-17T03:39:16;4.67;;;2.70;;
20144;SDS011;10233;50.814;6.590;2022-10-17T03:40:16;4.97;;;3.00;;
20144;SDS011;10233;50.814;6.590;2022-10-17T03:41:17;6.22;;;3.08;;
20144;SDS011;10233;50.814;6.590;2022-10-17T03:42:18;4.27;;;2.90;;
20144;SDS011;10233;50.814;6.590;2022-10-17T03:43:18;4.60;;;2.90;;
20144;SDS011;10233;50.814;6.590;2022-10-17T03:44:19;6.50;;;3.10;;
20144;SDS011;10233;50.814;6.590;2022-10-17T03:45:20;4.77;;;2.60;;
20144;SDS011;10233;50.814;6.590;2022-10-17T03:46:21;3.92;;;2.80;;
20144;SDS011;10233;50.814;6.590;2022-10-17T03:47:22;6.47;;;2.53;;
20144;SDS011;10233;50.814;6.590;2022-10-17T03:48:23;4.13;;;2.67;;
20144;SDS011;10233;50.814;6.590;2022-10-17T03:49:25;4.63;;;2.90;;
20144;SDS011;10233;50.814;6.590;2022-10-17T03:50:26;6.47;;;3.10;;
20144;SDS011;10233;50.814;6.590;2022-10-17T03:51:26;4.53;;;2.77;;
20144;SDS011;10233;50.814;6.590;2022-10-17T03:52:34;4.47;;;2.95;;
20144;SDS011;10233;50.814;6.590;2022-10-17T03:53:36;5.68;;;2.90;;
20144;SDS011;10233;50.814;6.590;2022-10-17T03:54:37;5.97;;;2.57;;
20144;SDS011;10233;50.814;6.590;2022-10-17T03:55:38;5.15;;;3.00;;
20144;SDS011;10233;50.814;6.590;2022-10-17T03:56:39;5.95;;;2.72;;
20144;SDS011;10233;50.814;6.590;2022-10-17T03:57:44;4.47;;;3.00;;
20144;SDS011;10233;50.814;6.590;2022-10-17T03:58:45;3.67;;;2.83;;
20144;SDS011;10233;50.814;6.590;2022-10-17T03:59:49;5.25;;;3.00;;
20144;SDS011;10233;50.814;6.590;2022-10-17T04:00:53;5.07;;;3.17;;
20144;SDS011;10233;50.814;6.590;2022-10-17T04:01:53;5.80;;;2.55;;
20144;SDS011;10233;50.814;6.590;2022-10-17T04:02:54;6.40;;;2.93;;
20144;SDS011;10233;50.814;6.590;2022-10-17T04:03:55;4.00;;;2.90;;
20144;SDS011;10233;50.814;6.590;2022-10-17T04:04:56;6.00;;;3.20;;
20144;SDS011;10233;50.814;6.590;2022-10-17T04:05:58;5.43;;;3.15;;
20144;SDS011;10233;50.814;6.590;2022-10-17T04:06:59;7.18;;;2.97;;
20144;SDS011;10233;50.814;6.590;2022-10-17T04:08:00;5.57;;;3.03;;
20144;SDS011;10233;50.814;6.590;2022-10-17T04:09:20;4.85;;;2.80;;
20144;SDS011;10233;50.814;6.590;2022-10-17T04:10:28;6.63;;;3.30;;
20144;SDS011;10233;50.814;6.590;2022-10-17T04:11:28;5.60;;;3.20;;
20144;SDS011;10233;50.814;6.590;2022-10-17T04:12:33;5.35;;;2.80;;
20144;SDS011;10233;50.814;6.590;2022-10-17T04:13:34;6.13;;;3.27;;
20144;SDS011;10233;50.814;6.590;2022-10-17T04:14:35;6.00;;;2.57;;
20144;SDS011;10233;50.814;6.590;2022-10-17T04:15:36;3.25;;;2.78;;
20144;SDS011;10233;50.814;6.590;2022-10-17T04:16:37;5.82;;;3.13;;
20144;SDS011;10233;50.814;6.590;2022-10-17T04:17:44;4.20;;;2.67;;
20144;SDS011;10233;50.814;6.590;2022-10-17T04:18:45;4.33;;;2.70;;
20144;SDS011;10233;50.814;6.590;2022-10-17T04:19:45;5.82;;;3.00;;
20144;SDS011;10233;50.814;6.590;2022-10-17T04:20:50;8.68;;;3.05;;
20144;SDS011;10233;50.814;6.590;2022-10-17T04:21:51;4.30;;;2.75;;
20144;SDS011;10233;50.814;6.590;2022-10-17T04:22:53;4.78;;;2.90;;
20144;SDS011;10233;50.814;6.590;2022-10-17T04:23:54;6.55;;;3.25;;
20144;SDS011;10233;50.814;6.590;2022-10-17T04:25:11;3.42;;;2.63;;
20144;SDS011;10233;50.814;6.590;2022-10-17T04:26:14;5.30;;;2.70;;
20144;SDS011;10233;50.814;6.590;2022-10-17T04:27:15;5.47;;;3.07;;
20144;SDS011;10233;50.814;6.590;2022-10-17T04:28:18;5.25;;;2.65;;
20144;SDS011;10233;50.814;6.590;2022-10-17T04:29:19;6.43;;;2.90;;
20144;SDS011;10233;50.814;6.590;2022-10-17T04:30:23;6.43;;;3.10;;
20144;SDS011;10233;50.814;6.590;2022-10-17T04:31:24;4.57;;;2.85;;
20144;SDS011;10233;50.814;6.590;2022-10-17T04:32:49;3.83;;;2.72;;
20144;SDS011;10233;50.814;6.590;2022-10-17T04:33:55;4.93;;;3.10;;
20144;SDS011;10233;50.814;6.590;2022-10-17T04:34:55;4.57;;;2.70;;
20144;SDS011;10233;50.814;6.590;2022-10-17T04:35:57;5.50;;;2.83;;
20144;SDS011;10233;50.814;6.590;2022-10-17T04:36:59;5.47;;;2.95;;
20144;SDS011;10233;50.814;6.590;2022-10-17T04:38:00;3.42;;;2.75;;
20144;SDS011;10233;50.814;6.590;2022-10-17T04:39:00;7.75;;;3.22;;
20144;SDS011;10233;50.814;6.590;2022-10-17T04:40:04;5.25;;;2.90;;
20144;SDS011;10233;50.814;6.590;2022-10-17T04:41:08;4.28;;;2.70;;
20144;SDS011;10233;50.814;6.590;2022-10-17T04:42:10;5.38;;;2.97;;
20144;SDS011;10233;50.814;6.590;2022-10-17T04:43:11;3.58;;;2.83;;
20144;SDS011;10233;50.814;6.590;2022-10-17T04:44:12;5.43;;;2.90;;
20144;SDS011;10233;50.814;6.590;2022-10-17T04:45:17;4.10;;;2.72;;
20144;SDS011;10233;50.814;6.590;2022-10-17T04:46:18;8.52;;;2.90;;
20144;SDS011;10233;50.814;6.590;2022-10-17T04:47:21;4.35;;;2.83;;
20144;SDS011;10233;50.814;6.590;2022-10-17T04:48:22;4.00;;;2.87;;
20144;SDS011;10233;50.814;6.590;2022-10-17T04:49:22;2.88;;;2.58;;
20144;SDS011;10233;50.814;6.590;2022-10-17T04:50:26;4.05;;;2.88;;
20144;SDS011;10233;50.814;6.590;2022-10-17T04:51:47;4.13;;;2.80;;
20144;SDS011;10233;50.814;6.590;2022-10-17T04:53:00;5.85;;;3.00;;
20144;SDS011;10233;50.814;6.590;2022-10-17T04:54:00;5.47;;;2.90;;
20144;SDS011;10233;50.814;6.590;2022-10-17T04:55:03;3.67;;;2.80;;
20144;SDS011;10233;50.814;6.590;2022-10-17T04:56:23;4.28;;;3.10;;
20144;SDS011;10233;50.814;6.590;2022-10-17T04:57:24;5.85;;;2.95;;
20144;SDS011;10233;50.814;6.590;2022-10-17T04:58:45;6.18;;;2.55;;
20144;SDS011;10233;50.814;6.590;2022-10-17T04:59:46;4.63;;;2.95;;
20144;SDS011;10233;50.814;6.590;2022-10-17T05:01:22;5.13;;;2.92;;
20144;SDS011;10233;50.814;6.590;2022-10-17T05:02:26;4.63;;;2.90;;
20144;SDS011;10233;50.814;6.590;2022-10-17T05:03:26;3.33;;;2.60;;
20144;SDS011;10233;50.814;6.590;2022-10-17T05:04:27;5.07;;;3.00;;
20144;SDS011;10233;50.814;6.590;2022-10-17T05:05:27;6.00;;;3.00;;
20144;SDS011;10233;50.814;6.590;2022-10-17T05:06:29;6.40;;;3.05;;
20144;SDS011;10233;50.814;6.590;2022-10-17T05:07:53;4.97;;;3.15;;
20144;SDS011;10233;50.814;6.590;2022-10-17T05:09:00;5.25;;;2.80;;
20144;SDS011;10233;50.814;6.590;2022-10-17T05:10:00;7.23;;;3.30;;
20144;SDS011;10233;50.814;6.590;2022-10-17T05:11:02;6.30;;;3.47;;
20144;SDS011;10233;50.814;6.590;2022-10-17T05:12:04;4.38;;;2.80;;
20144;SDS011;10233;50.814;6.590;2022-10-17T05:13:05;5.30;;;3.15;;
20144;SDS011;10233;50.814;6.590;2022-10-17T05:14:07;6.35;;;3.20;;
20144;SDS011;10233;50.814;6.590;2022-10-17T05:15:08;5.73;;;3.07;;
20144;SDS011;10233;50.814;6.590;2022-10-17T05:16:09;6.20;;;3.00;;
20144;SDS011;10233;50.814;6.590;2022-10-17T05:17:11;4.03;;;2.83;;
20144;SDS011;10233;50.814;6.590;2022-10-17T05:18:12;6.20;;;3.15;;
20144;SDS011;10233;50.814;6.590;2022-10-17T05:19:15;3.85;;;2.90;;
20144;SDS011;10233;50.814;6.590;2022-10-17T05:20:20;4.90;;;2.90;;
20144;SDS011;10233;50.814;6.590;2022-10-17T05:21:22;4.18;;;2.97;;
20144;SDS011;10233;50.814;6.590;2022-10-17T05:22:24;6.68;;;3.13;;
20144;SDS011;10233;50.814;6.590;2022-10-17T05:23:25;3.93;;;3.07;;
20144;SDS011;10233;50.814;6.590;2022-10-17T05:24:25;6.05;;;3.05;;
20144;SDS011;10233;50.814;6.590;2022-10-17T05:25:26;3.75;;;2.88;;
20144;SDS011;10233;50.814;6.590;2022-10-17T05:26:27;5.77;;;2.93;;
20144;SDS011;10233;50.814;6.590;2022-10-17T05:27:27;4.68;;;2.90;;
20144;SDS011;10233;50.814;6.590;2022-10-17T05:28:28;7.33;;;2.87;;
20144;SDS011;10233;50.814;6.590;2022-10-17T05:29:33;6.50;;;2.88;;
20144;SDS011;10233;50.814;6.590;2022-10-17T05:30:42;4.95;;;2.70;;
20144;SDS011;10233;50.814;6.590;2022-10-17T05:31:43;5.17;;;2.67;;
20144;SDS011;10233;50.814;6.590;2022-10-17T05:32:43;5.75;;;2.95;;
20144;SDS011;10233;50.814;6.590;2022-10-17T05:33:44;5.03;;;2.73;;
20144;SDS011;10233;50.814;6.590;2022-10-17T05:34:44;4.75;;;3.03;;
20144;SDS011;10233;50.814;6.590;2022-10-17T05:35:45;6.90;;;3.10;;
20144;SDS011;10233;50.814;6.590;2022-10-17T05:36:45;4.27;;;3.07;;
20144;SDS011;10233;50.814;6.590;2022-10-17T05:37:47;7.10;;;2.75;;
20144;SDS011;10233;50.814;6.590;2022-10-17T05:38:50;4.43;;;2.92;;
20144;SDS011;10233;50.814;6.590;2022-10-17T05:39:51;6.70;;;2.72;;
20144;SDS011;10233;50.814;6.590;2022-10-17T05:40:55;5.20;;;3.07;;
20144;SDS011;10233;50.814;6.590;2022-10-17T05:42:00;5.80;;;2.85;;
20144;SDS011;10233;50.814;6.590;2022-10-17T05:43:01;7.70;;;2.80;;
20144;SDS011;10233;50.814;6.590;2022-10-17T05:44:02;5.40;;;2.90;;
20144;SDS011;10233;50.814;6.590;2022-10-17T05:45:12;7.47;;;3.03;;
20144;SDS011;10233;50.814;6.590;2022-10-17T05:46:13;5.47;;;3.00;;
20144;SDS011;10233;50.814;6.590;2022-10-17T05:47:14;4.25;;;2.80;;
20144;SDS011;10233;50.814;6.590;2022-10-17T05:48:15;3.40;;;2.60;;
20144;SDS011;10233;50.814;6.590;2022-10-17T05:49:15;4.53;;;2.80;;
20144;SDS011;10233;50.814;6.590;2022-10-17T05:50:16;5.88;;;2.80;;
20144;SDS011;10233;50.814;6.590;2022-10-17T05:51:34;4.22;;;2.80;;
20144;SDS011;10233;50.814;6.590;2022-10-17T05:52:37;4.78;;;2.83;;
20144;SDS011;10233;50.814;6.590;2022-10-17T05:53:46;6.18;;;2.90;;
20144;SDS011;10233;50.814;6.590;2022-10-17T05:54:53;3.88;;;2.67;;
20144;SDS011;10233;50.814;6.590;2022-10-17T05:55:54;7.13;;;2.65;;
20144;SDS011;10233;50.814;6.590;2022-10-17T05:56:56;2.83;;;2.40;;
20144;SDS011;10233;50.814;6.590;2022-10-17T05:58:01;3.90;;;2.67;;
20144;SDS011;10233;50.814;6.590;2022-10-17T05:59:07;7.03;;;3.30;;
20144;SDS011;10233;50.814;6.590;2022-10-17T06:00:19;8.85;;;3.22;;
20144;SDS011;10233;50.814;6.590;2022-10-17T06:01:28;6.22;;;3.28;;
20144;SDS011;10233;50.814;6.590;2022-10-17T06:02:29;7.13;;;3.27;;
20144;SDS011;10233;50.814;6.590;2022-10-17T06:03:30;4.40;;;2.72;;
20144;SDS011;10233;50.814;6.590;2022-10-17T06:04:34;5.40;;;2.55;;
20144;SDS011;10233;50.814;6.590;2022-10-17T06:05:35;3.83;;;2.55;;
20144;SDS011;10233;50.814;6.590;2022-10-17T06:06:36;6.00;;;3.05;;
20144;SDS011;10233;50.814;6.590;2022-10-17T06:07:38;4.13;;;2.40;;
20144;SDS011;10233;50.814;6.590;2022-10-17T06:08:39;7.43;;;2.70;;
20144;SDS011;10233;50.814;6.590;2022-10-17T06:09:42;4.32;;;2.60;;
20144;SDS011;10233;50.814;6.590;2022-10-17T06:10:47;4.88;;;2.65;;
20144;SDS011;10233;50.814;6.590;2022-10-17T06:11:48;6.43;;;2.95;;
20144;SDS011;10233;50.814;6.590;2022-10-17T06:12:49;6.93;;;3.10;;
20144;SDS011;10233;50.814;6.590;2022-10-17T06:13:49;7.72;;;2.80;;
20144;SDS011;10233;50.814;6.590;2022-10-17T06:14:55;5.75;;;3.00;;
20144;SDS011;10233;50.814;6.590;2022-10-17T06:15:56;4.70;;;2.75;;
20144;SDS011;10233;50.814;6.590;2022-10-17T06:16:57;5.60;;;2.65;;
20144;SDS011;10233;50.814;6.590;2022-10-17T06:17:58;4.67;;;2.67;;
20144;SDS011;10233;50.814;6.590;2022-10-17T06:18:58;4.45;;;2.67;;
20144;SDS011;10233;50.814;6.590;2022-10-17T06:20:00;4.93;;;2.65;;
20144;SDS011;10233;50.814;6.590;2022-10-17T06:21:02;5.63;;;2.65;;
20144;SDS011;10233;50.814;6.590;2022-10-17T06:22:03;4.05;;;2.47;;
20144;SDS011;10233;50.814;6.590;2022-10-17T06:23:07;4.75;;;2.40;;
20144;SDS011;10233;50.814;6.590;2022-10-17T06:24:30;3.80;;;2.65;;
20144;SDS011;10233;50.814;6.590;2022-10-17T06:25:31;5.73;;;2.80;;
20144;SDS011;10233;50.814;6.590;2022-10-17T06:26:32;4.85;;;2.80;;
20144;SDS011;10233;50.814;6.590;2022-10-17T06:27:32;4.30;;;2.47;;
20144;SDS011;10233;50.814;6.590;2022-10-17T06:28:33;8.80;;;2.90;;
20144;SDS011;10233;50.814;6.590;2022-10-17T06:29:35;3.90;;;2.40;;
20144;SDS011;10233;50.814;6.590;2022-10-17T06:30:38;6.63;;;2.63;;
20144;SDS011;10233;50.814;6.590;2022-10-17T06:31:39;4.45;;;2.90;;
20144;SDS011;10233;50.814;6.590;2022-10-17T06:32:40;6.38;;;2.90;;
20144;SDS011;10233;50.814;6.590;2022-10-17T06:33:40;3.60;;;2.63;;
20144;SDS011;10233;50.814;6.590;2022-10-17T06:34:42;4.13;;;2.65;;
20144;SDS011;10233;50.814;6.590;2022-10-17T06:35:43;3.40;;;2.28;;
20144;SDS011;10233;50.814;6.590;2022-10-17T06:36:49;4.22;;;2.47;;
20144;SDS011;10233;50.814;6.590;2022-10-17T06:37:51;4.55;;;2.50;;
20144;SDS011;10233;50.814;6.590;2022-10-17T06:38:52;3.95;;;2.65;;
20144;SDS011;10233;50.814;6.590;2022-10-17T06:39:57;8.15;;;2.83;;
20144;SDS011;10233;50.814;6.590;2022-10-17T06:41:32;4.88;;;2.60;;
20144;SDS011;10233;50.814;6.590;2022-10-17T06:42:27;4.78;;;2.60;;
20144;SDS011;10233;50.814;6.590;2022-10-17T06:43:48;4.97;;;2.30;;
20144;SDS011;10233;50.814;6.590;2022-10-17T06:45:07;6.70;;;2.80;;
20144;SDS011;10233;50.814;6.590;2022-10-17T06:46:31;6.13;;;2.40;;
20144;SDS011;10233;50.814;6.590;2022-10-17T06:47:34;5.20;;;2.65;;
20144;SDS011;10233;50.814;6.590;2022-10-17T06:48:44;6.45;;;2.60;;
20144;SDS011;10233;50.814;6.590;2022-10-17T06:49:56;3.90;;;2.60;;
20144;SDS011;10233;50.814;6.590;2022-10-17T06:51:14;4.57;;;2.30;;
20144;SDS011;10233;50.814;6.590;2022-10-17T06:52:23;4.35;;;2.60;;
20144;SDS011;10233;50.814;6.590;2022-10-17T06:53:43;6.25;;;2.60;;
20144;SDS011;10233;50.814;6.590;2022-10-17T06:55:00;6.00;;;2.65;;
20144;SDS011;10233;50.814;6.590;2022-10-17T06:56:33;5.43;;;2.80;;
20144;SDS011;10233;50.814;6.590;2022-10-17T06:57:42;7.40;;;3.03;;
20144;SDS011;10233;50.814;6.590;2022-10-17T06:58:59;3.75;;;2.78;;
20144;SDS011;10233;50.814;6.590;2022-10-17T07:00:04;5.40;;;2.80;;
20144;SDS011;10233;50.814;6.590;2022-10-17T07:01:12;3.58;;;2.60;;
20144;SDS011;10233;50.814;6.590;2022-10-17T07:02:13;3.80;;;2.40;;